Time;durP1;ratioP1;P1;durP2;ratioP2;P2;SDS_P1;SDS_P2;PMS_P1;PMS_P2;Temp;Humidity;BMP_temperature;BMP_pressure;BME280_temperature;BME280_humidity;BME280_pressure;Samples;Min_cycle;Max_cycle;Signal;HPM_P1;HPM_P2
2021/10/03 00:01:18;;;;;;;8.50;3.80;;;;;;;14.45;41.68;101566.31;117352;1185;21895;-53
2021/10/03 00:03:49;;;;;;;6.50;3.40;;;;;;;14.41;41.67;101568.65;117316;1185;23541;-53
2021/10/03 00:06:17;;;;;;;7.00;3.50;;;;;;;14.32;41.78;101569.80;117350;1180;22924;-53
2021/10/03 00:08:47;;;;;;;7.80;3.40;;;;;;;14.30;41.71;101568.40;117390;1185;21848;-52
2021/10/03 00:11:15;;;;;;;7.40;3.60;;;;;;;14.26;41.77;101564.71;117363;1185;23531;-52
2021/10/03 00:13:44;;;;;;;7.40;3.70;;;;;;;14.23;41.81;101560.85;117274;1185;23556;-52
2021/10/03 00:16:13;;;;;;;6.60;3.40;;;;;;;14.20;41.84;101561.23;117319;1184;23542;-52
2021/10/03 00:18:42;;;;;;;7.20;3.40;;;;;;;14.16;41.74;101559.67;117348;1185;21848;-51
2021/10/03 00:21:11;;;;;;;5.50;3.10;;;;;;;14.12;41.74;101560.08;117325;1185;22619;-52
2021/10/03 00:23:39;;;;;;;6.20;3.40;;;;;;;14.08;41.80;101563.10;117142;1186;21856;-52
2021/10/03 00:26:08;;;;;;;6.90;4.10;;;;;;;14.03;41.76;101563.50;117160;1183;22901;-53
2021/10/03 00:28:36;;;;;;;7.50;3.60;;;;;;;13.98;41.86;101566.88;117329;1185;23441;-51
2021/10/03 00:31:04;;;;;;;9.30;4.20;;;;;;;13.92;41.87;101565.86;117216;1185;23439;-51
2021/10/03 00:33:34;;;;;;;11.40;4.00;;;;;;;13.90;41.78;101568.53;117336;1184;23627;-52
2021/10/03 00:36:03;;;;;;;10.00;3.90;;;;;;;13.84;41.82;101566.98;117356;1185;21862;-53
2021/10/03 00:38:31;;;;;;;6.20;3.60;;;;;;;13.82;41.78;101566.46;117424;1185;23465;-52
2021/10/03 00:40:59;;;;;;;9.40;3.70;;;;;;;13.79;41.79;101568.61;117251;1185;21901;-53
2021/10/03 00:43:27;;;;;;;8.90;3.60;;;;;;;13.75;41.82;101571.44;117387;1184;21858;-52
2021/10/03 00:45:56;;;;;;;8.20;4.00;;;;;;;13.72;41.75;101574.46;117366;1185;24711;-52
2021/10/03 00:48:24;;;;;;;7.40;4.00;;;;;;;13.71;41.79;101578.88;117304;1184;22916;-52
2021/10/03 00:50:53;;;;;;;10.50;4.50;;;;;;;13.63;41.81;101582.29;117308;1185;22921;-52
2021/10/03 00:53:21;;;;;;;9.30;4.00;;;;;;;13.56;41.78;101584.95;117299;1187;21867;-52
2021/10/03 00:55:50;;;;;;;8.10;4.40;;;;;;;13.54;41.78;101588.15;117268;1186;23558;-52
2021/10/03 00:58:18;;;;;;;7.10;4.30;;;;;;;13.53;41.79;101588.33;117295;1185;23462;-51
2021/10/03 01:00:47;;;;;;;8.40;3.70;;;;;;;13.52;41.79;101582.34;117118;1183;21906;-52
2021/10/03 01:03:15;;;;;;;7.90;3.70;;;;;;;13.52;41.78;101583.58;117357;1184;22249;-51
2021/10/03 01:05:43;;;;;;;9.40;3.90;;;;;;;13.51;41.87;101583.93;117309;1185;23567;-51
2021/10/03 01:08:11;;;;;;;7.10;4.30;;;;;;;13.49;41.78;101582.00;117311;1185;21842;-52
2021/10/03 01:10:39;;;;;;;8.80;3.60;;;;;;;13.46;41.93;101579.91;117223;1186;23682;-52
2021/10/03 01:13:14;;;;;;;12.30;3.80;;;;;;;13.45;41.89;101577.10;117336;1188;21852;-51
2021/10/03 01:15:44;;;;;;;7.40;4.10;;;;;;;13.44;41.99;101574.45;117333;1185;21919;-52
2021/10/03 01:18:13;;;;;;;8.40;4.10;;;;;;;13.44;41.92;101576.21;117294;1183;23569;-52
2021/10/03 01:20:41;;;;;;;6.60;4.00;;;;;;;13.47;42.02;101580.42;117349;1184;23455;-51
2021/10/03 01:23:10;;;;;;;7.20;3.90;;;;;;;13.48;41.98;101580.23;117343;1185;23502;-51
2021/10/03 01:25:40;;;;;;;7.80;4.10;;;;;;;13.49;42.08;101575.83;117341;1185;21967;-51
2021/10/03 01:28:08;;;;;;;10.40;4.20;;;;;;;13.51;42.00;101576.88;117292;1182;21960;-52
2021/10/03 01:30:38;;;;;;;7.60;3.90;;;;;;;13.52;42.03;101577.39;117333;1185;23567;-51
2021/10/03 01:33:06;;;;;;;7.60;4.10;;;;;;;13.53;41.94;101576.51;117315;1185;21855;-51
2021/10/03 01:35:35;;;;;;;8.20;4.20;;;;;;;13.55;42.04;101573.69;117317;1185;23669;-51
2021/10/03 01:38:03;;;;;;;6.10;3.90;;;;;;;13.56;42.03;101566.64;117368;1186;21844;-51
2021/10/03 01:40:32;;;;;;;6.90;4.20;;;;;;;13.56;41.93;101569.09;117364;1185;23014;-52
2021/10/03 01:43:00;;;;;;;10.50;3.90;;;;;;;13.54;42.03;101569.81;117288;1185;21969;-52
2021/10/03 01:45:28;;;;;;;7.00;4.00;;;;;;;13.52;42.04;101574.05;117310;1185;21859;-52
2021/10/03 01:48:04;;;;;;;8.20;3.70;;;;;;;13.52;42.05;101573.70;117301;1184;22918;-51
2021/10/03 01:50:40;;;;;;;8.20;4.20;;;;;;;13.58;41.98;101574.02;117314;1184;22992;-52
2021/10/03 01:53:09;;;;;;;10.20;4.20;;;;;;;13.57;41.83;101575.44;117261;1181;21914;-52
2021/10/03 01:55:38;;;;;;;8.50;4.00;;;;;;;13.57;41.73;101577.90;117324;1185;23450;-52
2021/10/03 01:58:06;;;;;;;8.00;4.30;;;;;;;13.55;41.89;101579.33;117176;1185;24159;-52
2021/10/03 02:00:35;;;;;;;8.90;4.20;;;;;;;13.53;41.79;101578.63;117231;1185;21838;-52
2021/10/03 02:03:05;;;;;;;13.90;4.80;;;;;;;13.52;41.83;101580.92;117300;1182;23467;-50
2021/10/03 02:05:41;;;;;;;8.80;4.30;;;;;;;13.49;41.84;101577.42;117332;1185;22905;-51
2021/10/03 02:08:11;;;;;;;8.90;5.10;;;;;;;13.45;41.81;101576.04;117347;1186;21864;-52
2021/10/03 02:10:40;;;;;;;8.90;5.10;;;;;;;13.43;41.82;101573.94;117381;1185;21854;-51
2021/10/03 02:13:09;;;;;;;6.60;4.10;;;;;;;13.40;41.75;101572.16;117340;1183;22815;-51
2021/10/03 02:15:40;;;;;;;13.30;4.50;;;;;;;13.33;41.77;101567.95;117328;1185;22059;-52
2021/10/03 02:18:09;;;;;;;8.40;4.50;;;;;;;13.25;41.85;101567.98;117386;1185;22910;-52
2021/10/03 02:20:37;;;;;;;8.80;4.30;;;;;;;13.20;41.95;101567.13;117325;1185;23819;-51
2021/10/03 02:23:07;;;;;;;9.60;4.60;;;;;;;13.16;41.83;101567.85;117350;1185;23538;-51
2021/10/03 02:25:43;;;;;;;7.30;4.70;;;;;;;13.12;41.94;101566.63;117319;1180;23683;-51
2021/10/03 02:28:13;;;;;;;10.60;4.80;;;;;;;13.10;42.09;101559.94;117377;1185;21866;-51
2021/10/03 02:30:42;;;;;;;8.30;4.70;;;;;;;13.07;42.06;101558.53;117317;1185;22899;-52
2021/10/03 02:33:10;;;;;;;8.90;3.90;;;;;;;13.05;42.03;101560.30;117331;1185;21860;-51
2021/10/03 02:35:39;;;;;;;10.80;5.10;;;;;;;13.07;42.13;101558.73;117305;1186;21899;-51
2021/10/03 02:38:08;;;;;;;9.80;5.70;;;;;;;13.04;42.06;101564.54;117291;1186;23541;-50
2021/10/03 02:40:36;;;;;;;9.00;4.40;;;;;;;13.03;42.20;101567.73;117311;1185;23440;-51
2021/10/03 02:43:08;;;;;;;12.70;4.90;;;;;;;13.00;42.16;101571.97;117350;1185;23541;-51
2021/10/03 02:45:38;;;;;;;9.50;4.50;;;;;;;12.96;42.12;101570.22;117335;1187;21844;-51
2021/10/03 02:48:06;;;;;;;10.00;4.20;;;;;;;12.90;42.00;101569.16;117310;1185;22989;-51
2021/10/03 02:50:34;;;;;;;10.20;4.90;;;;;;;12.83;42.17;101568.48;117284;1185;21855;-51
2021/10/03 02:53:05;;;;;;;7.20;4.00;;;;;;;12.78;42.22;101570.79;117135;1186;21843;-51
2021/10/03 02:55:33;;;;;;;10.50;4.60;;;;;;;12.74;42.03;101566.93;117299;1184;21861;-51
2021/10/03 02:58:02;;;;;;;12.60;4.90;;;;;;;12.68;42.13;101565.34;117297;1184;23449;-52
2021/10/03 03:00:32;;;;;;;7.60;4.40;;;;;;;12.64;42.07;101569.22;117317;1187;21856;-50
2021/10/03 03:03:00;;;;;;;9.20;4.40;;;;;;;12.59;42.11;101571.17;117343;1185;21874;-51
2021/10/03 03:05:29;;;;;;;11.90;5.00;;;;;;;12.53;42.04;101572.42;117342;1185;23554;-52
2021/10/03 03:08:02;;;;;;;7.30;4.50;;;;;;;12.46;42.00;101574.53;117289;1185;23566;-51
2021/10/03 03:10:31;;;;;;;10.30;4.80;;;;;;;12.41;42.04;101570.13;117350;1186;23569;-51
2021/10/03 03:12:59;;;;;;;9.00;4.60;;;;;;;12.34;42.11;101566.45;117283;1185;24156;-50
2021/10/03 03:15:28;;;;;;;12.60;5.30;;;;;;;12.30;42.08;101568.04;117267;1184;22318;-51
2021/10/03 03:17:56;;;;;;;9.00;4.50;;;;;;;12.27;41.91;101572.79;117320;1184;23543;-51
2021/10/03 03:20:25;;;;;;;9.40;4.90;;;;;;;12.24;42.10;101571.91;117305;1184;23553;-51
2021/10/03 03:22:53;;;;;;;11.50;4.80;;;;;;;12.21;42.06;101571.73;117349;1185;23564;-51
2021/10/03 03:25:21;;;;;;;12.20;4.90;;;;;;;12.18;42.13;101570.33;117313;1185;21862;-51
2021/10/03 03:27:49;;;;;;;12.90;6.00;;;;;;;12.15;42.15;101566.44;117328;1185;23022;-51
2021/10/03 03:30:17;;;;;;;8.70;5.10;;;;;;;12.15;42.00;101564.16;117258;1182;23884;-51
2021/10/03 03:32:46;;;;;;;10.10;5.50;;;;;;;12.14;42.02;101563.46;117325;1185;23567;-50
2021/10/03 03:35:14;;;;;;;12.00;5.60;;;;;;;12.14;42.08;101563.29;117263;1185;23464;-51
2021/10/03 03:37:42;;;;;;;12.40;5.10;;;;;;;12.15;42.19;101566.27;117297;1185;21868;-50
2021/10/03 03:40:11;;;;;;;8.40;4.90;;;;;;;12.16;42.12;101562.40;117335;1185;23439;-51
2021/10/03 03:42:40;;;;;;;9.80;5.20;;;;;;;12.16;42.06;101566.80;117353;1184;23368;-50
2021/10/03 03:45:08;;;;;;;11.10;5.80;;;;;;;12.17;42.01;101568.73;117338;1185;21904;-51
2021/10/03 03:47:37;;;;;;;9.40;5.30;;;;;;;12.17;42.25;101566.79;117290;1182;23443;-50
2021/10/03 03:50:11;;;;;;;12.50;6.10;;;;;;;12.15;42.07;101566.61;117271;1186;22648;-51
2021/10/03 03:52:40;;;;;;;13.90;5.20;;;;;;;12.14;42.22;101572.25;117303;1185;21862;-60
2021/10/03 03:55:09;;;;;;;9.50;5.60;;;;;;;12.12;42.13;101567.17;117308;1185;21895;-60
2021/10/03 03:57:37;;;;;;;10.20;5.00;;;;;;;12.09;42.30;101571.38;117332;1183;22922;-60
2021/10/03 04:00:06;;;;;;;12.40;5.60;;;;;;;12.07;42.29;101572.08;117318;1186;23551;-61
2021/10/03 04:02:34;;;;;;;14.00;5.70;;;;;;;12.06;42.38;101573.32;117417;1185;21851;-60
2021/10/03 04:05:03;;;;;;;18.00;6.50;;;;;;;12.09;42.46;101575.27;117327;1182;21926;-61
2021/10/03 04:07:32;;;;;;;16.20;6.10;;;;;;;12.13;42.63;101573.14;117372;1185;22818;-62
2021/10/03 04:10:00;;;;;;;19.00;6.30;;;;;;;12.16;42.50;101569.27;117274;1185;24146;-62
2021/10/03 04:12:35;;;;;;;22.40;6.40;;;;;;;12.21;42.66;101570.15;117265;1189;23555;-62
2021/10/03 04:15:05;;;;;;;16.60;5.80;;;;;;;12.26;42.67;101572.98;117270;1185;22616;-61
2021/10/03 04:17:33;;;;;;;11.00;5.60;;;;;;;12.33;42.70;101568.76;117362;1183;23544;-62
2021/10/03 04:20:05;;;;;;;19.50;5.90;;;;;;;12.39;42.68;101573.66;117455;1186;23551;-63
2021/10/03 04:22:34;;;;;;;14.80;6.10;;;;;;;12.42;42.54;101577.36;117359;1186;21859;-61
2021/10/03 04:25:03;;;;;;;16.10;6.30;;;;;;;12.46;42.70;101581.21;117352;1186;22915;-61
2021/10/03 04:27:31;;;;;;;19.30;6.20;;;;;;;12.46;42.70;101584.04;117361;1188;21857;-61
2021/10/03 04:30:01;;;;;;;15.20;6.60;;;;;;;12.48;42.70;101584.04;117263;1186;24142;-60
2021/10/03 04:32:30;;;;;;;16.80;5.40;;;;;;;12.52;42.90;101584.05;117324;1185;23463;-62
2021/10/03 04:34:58;;;;;;;11.60;5.80;;;;;;;12.58;42.87;101586.30;117370;1189;21855;-62
2021/10/03 04:37:27;;;;;;;17.80;5.80;;;;;;;12.64;42.88;101588.07;117337;1185;22897;-63
2021/10/03 04:39:55;;;;;;;13.50;5.90;;;;;;;12.70;42.83;101588.93;117498;1176;23461;-63
2021/10/03 04:42:23;;;;;;;13.00;5.80;;;;;;;12.75;42.91;101587.52;117350;1185;21862;-62
2021/10/03 04:44:51;;;;;;;14.60;6.00;;;;;;;12.84;42.99;101589.78;117301;1183;23439;-63
2021/10/03 04:47:19;;;;;;;11.30;5.30;;;;;;;12.92;42.93;101588.54;117361;1186;23810;-61
2021/10/03 04:49:50;;;;;;;16.50;5.40;;;;;;;12.98;43.05;101591.88;117296;1185;23557;-63
2021/10/03 04:52:19;;;;;;;9.20;5.70;;;;;;;13.07;42.98;101593.44;117222;1185;23551;-63
2021/10/03 04:54:47;;;;;;;17.50;6.00;;;;;;;13.16;42.94;101590.94;117223;1185;21849;-64
2021/10/03 04:57:15;;;;;;;13.00;5.80;;;;;;;13.25;42.94;101591.78;117265;1185;21858;-64
2021/10/03 04:59:44;;;;;;;10.70;5.50;;;;;;;13.35;43.01;101590.34;117231;1185;23545;-63
2021/10/03 05:02:12;;;;;;;14.00;6.40;;;;;;;13.42;43.11;101590.50;117239;1185;23445;-64
2021/10/03 05:04:40;;;;;;;13.30;5.00;;;;;;;13.51;43.16;101592.21;117348;1182;22898;-51
2021/10/03 05:07:09;;;;;;;11.40;5.10;;;;;;;13.62;43.17;101589.70;117269;1185;21868;-53
2021/10/03 05:09:37;;;;;;;16.40;5.60;;;;;;;13.72;43.17;101586.98;117316;1185;22901;-52
2021/10/03 05:12:10;;;;;;;11.20;5.70;;;;;;;13.82;43.17;101593.10;117271;1189;23541;-51
2021/10/03 05:14:38;;;;;;;13.90;6.00;;;;;;;13.91;43.24;101591.98;117279;1184;23440;-51
2021/10/03 05:17:06;;;;;;;10.90;5.90;;;;;;;13.98;43.16;101595.11;117289;1186;23449;-52
2021/10/03 05:19:35;;;;;;;9.00;4.90;;;;;;;14.05;43.13;101596.30;117393;1185;24002;-53
2021/10/03 05:22:04;;;;;;;10.90;5.50;;;;;;;14.10;43.22;101600.33;117374;1186;23563;-52
2021/10/03 05:24:32;;;;;;;10.40;5.10;;;;;;;14.20;43.10;101602.36;117345;1185;23544;-53
2021/10/03 05:27:00;;;;;;;9.60;5.60;;;;;;;14.25;43.11;101604.44;117293;1185;23449;-54
2021/10/03 05:29:29;;;;;;;11.30;5.40;;;;;;;14.30;43.14;101606.00;117321;1182;23317;-54
2021/10/03 05:31:57;;;;;;;9.00;5.50;;;;;;;14.39;43.22;101603.44;117277;1185;21844;-54
2021/10/03 05:34:26;;;;;;;11.10;5.60;;;;;;;14.49;43.25;101604.41;117384;1182;21862;-52
2021/10/03 05:36:55;;;;;;;12.70;6.10;;;;;;;14.57;43.19;101605.77;117414;1185;23539;-52
2021/10/03 05:39:23;;;;;;;12.40;5.10;;;;;;;14.65;43.12;101606.56;117320;1189;21864;-52
2021/10/03 05:41:52;;;;;;;14.60;5.60;;;;;;;14.76;43.16;101606.67;117360;1183;21856;-53
2021/10/03 05:44:20;;;;;;;10.40;5.50;;;;;;;14.87;43.22;101606.20;117350;1186;23918;-51
2021/10/03 05:46:48;;;;;;;12.30;5.30;;;;;;;15.00;43.12;101607.84;117281;1185;21857;-52
2021/10/03 05:49:16;;;;;;;11.10;5.90;;;;;;;15.08;43.15;101608.80;118169;1185;23441;-51
2021/10/03 05:51:44;;;;;;;10.60;5.50;;;;;;;15.15;43.17;101610.14;117246;1185;23542;-52
2021/10/03 05:54:12;;;;;;;13.90;6.20;;;;;;;15.23;43.29;101611.46;117247;1185;21896;-52
2021/10/03 05:56:40;;;;;;;13.10;6.30;;;;;;;15.36;43.23;101613.95;117333;1185;21869;-50
2021/10/03 05:59:12;;;;;;;11.40;5.10;;;;;;;15.50;43.16;101615.19;117295;1189;21858;-51
2021/10/03 06:01:41;;;;;;;13.90;5.60;;;;;;;15.63;43.27;101619.09;117264;1185;21898;-51
2021/10/03 06:04:10;;;;;;;12.40;5.90;;;;;;;15.79;43.31;101617.62;118970;1185;23809;-54
2021/10/03 06:06:38;;;;;;;11.60;5.20;;;;;;;15.93;43.35;101617.09;117349;1183;23563;-53
2021/10/03 06:09:06;;;;;;;11.50;5.50;;;;;;;16.05;43.30;101617.80;117376;1186;23541;-52
2021/10/03 06:11:35;;;;;;;9.90;5.50;;;;;;;16.20;43.39;101620.59;117395;1185;21857;-51
2021/10/03 06:14:05;;;;;;;12.10;5.70;;;;;;;16.38;43.42;101626.48;117319;1186;23460;-52
2021/10/03 06:16:35;;;;;;;;;;;;;;;16.50;43.41;101624.36;117307;1182;22915;-50
2021/10/03 06:19:03;;;;;;;15.50;5.70;;;;;;;16.63;43.44;101622.35;117263;1185;23576;-52
2021/10/03 06:21:32;;;;;;;10.60;5.40;;;;;;;16.80;43.41;101620.63;117330;1182;22927;-51
2021/10/03 06:24:01;;;;;;;9.00;5.60;;;;;;;16.98;43.40;101622.08;117358;1188;21894;-53
2021/10/03 06:26:29;;;;;;;11.00;6.30;;;;;;;17.17;43.59;101626.70;117321;1183;21863;-53
2021/10/03 06:28:57;;;;;;;11.80;5.90;;;;;;;17.36;43.43;101629.67;117332;1185;21853;-61
2021/10/03 06:31:25;;;;;;;12.60;5.80;;;;;;;17.56;43.46;101627.33;117245;1183;23556;-61
2021/10/03 06:33:53;;;;;;;11.70;5.90;;;;;;;17.74;43.46;101629.57;117267;1185;22819;-61
2021/10/03 06:36:21;;;;;;;11.00;4.80;;;;;;;17.94;43.51;101626.64;117377;1185;23544;-61
2021/10/03 06:38:54;;;;;;;9.00;4.60;;;;;;;18.16;43.50;101627.05;117265;1185;23583;-61
2021/10/03 06:41:22;;;;;;;11.50;5.10;;;;;;;18.37;43.50;101623.53;117300;1188;21856;-61
2021/10/03 06:43:50;;;;;;;7.20;4.90;;;;;;;18.55;43.46;101623.05;117293;1185;21845;-61
2021/10/03 06:46:18;;;;;;;7.40;4.50;;;;;;;18.74;43.38;101624.34;117218;1185;23438;-60
2021/10/03 06:48:46;;;;;;;7.00;4.40;;;;;;;18.92;43.41;101625.64;117343;1186;23668;-61
2021/10/03 06:51:15;;;;;;;9.80;4.60;;;;;;;19.13;43.43;101622.81;117295;1188;21855;-60
2021/10/03 06:53:44;;;;;;;8.50;4.70;;;;;;;19.34;43.44;101623.43;117313;1187;23541;-61
2021/10/03 06:56:13;;;;;;;8.50;4.70;;;;;;;19.56;43.39;101625.27;117359;1189;21912;-61
2021/10/03 06:58:41;;;;;;;6.80;4.20;;;;;;;19.72;43.40;101624.98;117381;1186;23809;-61
2021/10/03 07:01:15;;;;;;;13.70;4.90;;;;;;;19.83;43.37;101621.45;117345;1183;23566;-61
2021/10/03 07:03:44;;;;;;;17.50;5.10;;;;;;;20.01;43.38;101620.88;117251;1186;21874;-61
2021/10/03 07:06:14;;;;;;;6.90;4.10;;;;;;;20.22;43.33;101622.34;117325;1185;23513;-62
2021/10/03 07:08:42;;;;;;;7.10;4.00;;;;;;;20.38;43.24;101618.08;117227;1176;23475;-61
2021/10/03 07:11:11;;;;;;;10.80;4.50;;;;;;;20.57;43.37;101615.13;117237;1185;23010;-62
2021/10/03 07:13:40;;;;;;;9.90;4.50;;;;;;;20.79;43.46;101615.98;117260;1185;24012;-62
2021/10/03 07:16:09;;;;;;;7.90;3.90;;;;;;;20.97;43.37;101616.05;117264;1185;21852;-60
2021/10/03 07:18:37;;;;;;;9.50;4.30;;;;;;;21.12;43.28;101616.61;117342;1183;23530;-63
2021/10/03 07:21:05;;;;;;;23.50;5.70;;;;;;;21.26;43.25;101614.63;117333;1189;21860;-64
2021/10/03 07:23:35;;;;;;;11.00;3.90;;;;;;;21.41;43.36;101611.39;117340;1186;23640;-61
2021/10/03 07:26:03;;;;;;;9.70;4.60;;;;;;;21.61;43.36;101610.66;117288;1188;21855;-60
2021/10/03 07:28:33;;;;;;;11.90;3.60;;;;;;;21.75;43.29;101604.74;117206;1184;23545;-61
2021/10/03 07:31:02;;;;;;;9.50;3.90;;;;;;;21.93;43.23;101604.05;117321;1185;23251;-61
2021/10/03 07:33:31;;;;;;;7.50;3.80;;;;;;;22.12;43.11;101607.38;117264;1184;22917;-62
2021/10/03 07:36:00;;;;;;;8.40;3.40;;;;;;;22.26;43.11;101603.77;117287;1185;23544;-61
2021/10/03 07:38:31;;;;;;;10.20;4.10;;;;;;;22.35;42.95;101602.66;117241;1183;23581;-62
2021/10/03 07:40:59;;;;;;;9.10;4.00;;;;;;;22.41;42.69;101603.31;117310;1186;23544;-62
2021/10/03 07:43:28;;;;;;;6.40;3.50;;;;;;;22.50;42.79;101607.44;117287;1183;23570;-61
2021/10/03 07:45:56;;;;;;;10.90;3.70;;;;;;;22.63;42.89;101607.81;117139;1186;23572;-61
2021/10/03 07:48:25;;;;;;;6.50;3.40;;;;;;;22.74;42.68;101605.17;117303;1186;23544;-62
2021/10/03 07:50:55;;;;;;;8.30;3.20;;;;;;;22.83;42.77;101607.98;117273;1185;21869;-62
2021/10/03 07:53:23;;;;;;;8.70;3.10;;;;;;;22.97;42.94;101607.91;117301;1186;23560;-62
2021/10/03 07:55:53;;;;;;;10.30;3.60;;;;;;;23.09;42.83;101605.91;117270;1183;22432;-61
2021/10/03 07:58:21;;;;;;;9.00;3.10;;;;;;;23.27;42.75;101611.42;117290;1183;23828;-61
2021/10/03 08:00:49;;;;;;;7.50;3.00;;;;;;;23.45;42.81;101608.25;117231;1185;22319;-62
2021/10/03 08:03:18;;;;;;;8.00;3.00;;;;;;;23.65;42.70;101612.49;117283;1185;23631;-62
2021/10/03 08:05:46;;;;;;;6.70;3.00;;;;;;;23.79;42.62;101609.85;117300;1185;23554;-61
2021/10/03 08:08:15;;;;;;;7.00;3.00;;;;;;;23.90;42.57;101606.30;117305;1185;21854;-61
2021/10/03 08:10:43;;;;;;;5.30;2.80;;;;;;;23.96;42.53;101603.69;117432;1185;23439;-61
2021/10/03 08:13:12;;;;;;;9.30;3.10;;;;;;;24.02;42.48;101604.11;117362;1182;23535;-61
2021/10/03 08:15:41;;;;;;;7.10;2.90;;;;;;;24.11;42.34;101604.02;117322;1185;21871;-60
2021/10/03 08:18:11;;;;;;;5.90;2.60;;;;;;;24.17;42.23;101603.39;117343;1186;22649;-63
2021/10/03 08:20:41;;;;;;;9.00;3.10;;;;;;;24.24;42.26;101605.39;117297;1185;22958;-62
2021/10/03 08:23:09;;;;;;;6.10;2.50;;;;;;;24.33;42.16;101602.01;117329;1185;22937;-62
2021/10/03 08:25:38;;;;;;;8.80;2.90;;;;;;;24.43;42.01;101598.48;117214;1185;22639;-62
2021/10/03 08:28:06;;;;;;;9.20;2.50;;;;;;;24.52;42.02;101595.13;117306;1186;21870;-61
2021/10/03 08:30:42;;;;;;;8.10;2.60;;;;;;;24.65;42.06;101593.58;117347;1183;22969;-60
2021/10/03 08:33:11;;;;;;;8.40;3.30;;;;;;;24.81;42.11;101590.25;117242;1186;22451;-63
2021/10/03 08:35:40;;;;;;;4.70;2.20;;;;;;;25.00;42.18;101591.41;117262;1185;22647;-61
2021/10/03 08:38:09;;;;;;;9.30;2.40;;;;;;;25.17;42.13;101591.41;117284;1185;23581;-64
2021/10/03 08:40:37;;;;;;;5.70;2.40;;;;;;;25.27;41.97;101589.59;117251;1185;23451;-63
2021/10/03 08:43:08;;;;;;;5.50;2.10;;;;;;;25.31;41.84;101582.68;117236;1186;24200;-62
2021/10/03 08:45:44;;;;;;;7.50;2.20;;;;;;;25.40;41.87;101579.34;117291;1186;22958;-62
2021/10/03 08:48:13;;;;;;;4.60;2.10;;;;;;;25.56;41.83;101581.88;117273;1186;23541;-62
2021/10/03 08:50:44;;;;;;;4.40;2.00;;;;;;;25.71;41.74;101580.49;117366;1181;21856;-61
2021/10/03 08:53:14;;;;;;;4.50;2.00;;;;;;;25.84;41.70;101570.97;117332;1183;21853;-62
2021/10/03 08:55:43;;;;;;;5.80;2.00;;;;;;;26.05;41.60;101570.63;117323;1182;22648;-64
2021/10/03 08:58:11;;;;;;;5.80;2.00;;;;;;;26.17;41.45;101571.77;117284;1183;22824;-63
2021/10/03 09:00:47;;;;;;;7.80;2.20;;;;;;;26.24;41.34;101571.33;117266;1183;23653;-64
2021/10/03 09:03:19;;;;;;;4.90;1.80;;;;;;;26.29;41.09;101561.18;117246;1189;21859;-62
2021/10/03 09:05:56;;;;;;;3.90;1.80;;;;;;;26.34;41.03;101565.89;117297;1187;21953;-62
2021/10/03 09:08:29;;;;;;;3.10;1.80;;;;;;;26.39;40.95;101565.44;117424;1183;22929;-64
2021/10/03 09:11:07;;;;;;;3.60;1.90;;;;;;;26.40;40.91;101562.30;117347;1185;21855;-64
2021/10/03 09:13:35;;;;;;;4.30;2.30;;;;;;;26.45;40.86;101561.67;117329;1182;22901;-62
2021/10/03 09:16:33;;;;;;;6.50;1.90;;;;;;;26.48;40.88;101562.41;117298;1186;21855;-62
2021/10/03 09:19:10;;;;;;;5.60;1.90;;;;;;;26.54;40.72;101562.70;117269;1186;21870;-63
2021/10/03 09:21:40;;;;;;;4.70;2.00;;;;;;;26.59;40.64;101562.95;117346;1185;21891;-64
2021/10/03 09:24:11;;;;;;;5.70;2.20;;;;;;;26.65;40.77;101563.30;117340;1180;21854;-62
2021/10/03 09:27:07;;;;;;;;;;;;;;;26.76;40.70;101561.58;117369;1183;22675;-63
2021/10/03 09:29:36;;;;;;;6.30;2.40;;;;;;;26.84;40.61;101559.50;117309;1183;23441;-63
2021/10/03 09:32:15;;;;;;;9.40;2.80;;;;;;;26.89;40.61;101559.20;117333;1181;22917;-62
2021/10/03 09:34:47;;;;;;;6.30;2.50;;;;;;;26.91;40.43;101555.62;117286;1186;23663;-64
2021/10/03 09:37:26;;;;;;;5.90;2.20;;;;;;;26.98;40.41;101557.69;117298;1188;21899;-63
2021/10/03 09:40:18;;;;;;;12.00;2.30;;;;;;;27.05;40.46;101561.95;117234;1183;21857;-64
2021/10/03 09:43:00;;;;;;;4.00;2.40;;;;;;;27.11;40.51;101556.90;117255;1178;23532;-63
2021/10/03 09:45:28;;;;;;;7.40;2.30;;;;;;;27.10;40.47;101552.08;117304;1185;22106;-63
2021/10/03 09:48:06;;;;;;;5.00;2.00;;;;;;;27.08;40.43;101548.60;117306;1183;23544;-62
2021/10/03 09:50:40;;;;;;;5.50;2.10;;;;;;;27.08;40.32;101554.07;117357;1183;23461;-63
2021/10/03 09:53:12;;;;;;;5.70;2.30;;;;;;;27.08;40.41;101551.69;117351;1184;21907;-63
2021/10/03 09:55:42;;;;;;;7.60;2.20;;;;;;;27.12;40.37;101549.77;117339;1182;21865;-63
2021/10/03 09:58:12;;;;;;;6.50;2.40;;;;;;;27.13;40.37;101549.03;117028;1185;21856;-63
2021/10/03 10:00:41;;;;;;;6.40;2.20;;;;;;;27.21;40.21;101542.05;117206;1186;23441;-62
2021/10/03 10:03:12;;;;;;;4.40;1.90;;;;;;;27.33;40.22;101542.91;117273;1186;22619;-63
2021/10/03 10:05:40;;;;;;;5.60;2.10;;;;;;;27.43;40.02;101543.86;117200;1185;22975;-62
2021/10/03 10:08:09;;;;;;;4.80;1.70;;;;;;;27.52;40.00;101539.34;117356;1185;23541;-64
2021/10/03 10:10:37;;;;;;;6.00;2.10;;;;;;;27.57;39.86;101531.08;117252;1182;23237;-62
2021/10/03 10:13:13;;;;;;;4.50;2.20;;;;;;;27.58;39.82;101530.98;117177;1186;23564;-63
2021/10/03 10:15:41;;;;;;;6.80;2.30;;;;;;;27.61;39.71;101533.87;117346;1185;23475;-62
2021/10/03 10:18:21;;;;;;;4.80;2.70;;;;;;;27.62;39.63;101537.04;117373;1185;23441;-62
2021/10/03 10:20:50;;;;;;;5.30;2.00;;;;;;;27.66;39.60;101535.16;117364;1185;23452;-63
2021/10/03 10:23:19;;;;;;;3.90;2.00;;;;;;;27.74;39.59;101530.52;117356;1182;23438;-64
2021/10/03 10:25:54;;;;;;;6.00;2.20;;;;;;;27.79;39.57;101530.73;117270;1184;21876;-61
2021/10/03 10:28:29;;;;;;;5.70;2.10;;;;;;;27.80;39.52;101521.44;118525;1185;21848;-64
2021/10/03 10:31:11;;;;;;;3.60;2.00;;;;;;;27.84;39.30;101521.36;117084;1186;23489;-63
2021/10/03 10:33:51;;;;;;;4.70;2.00;;;;;;;27.89;39.41;101522.83;117206;1185;24155;-64
2021/10/03 10:36:20;;;;;;;;;;;;;;;27.92;39.24;101522.27;117312;1184;21842;-62
2021/10/03 10:39:07;;;;;;;4.70;1.80;;;;;;;27.88;39.18;101518.02;117356;1186;21858;-62
2021/10/03 10:41:47;;;;;;;6.40;2.00;;;;;;;27.88;39.20;101523.45;117355;1182;23066;-62
2021/10/03 10:44:27;;;;;;;5.00;2.00;;;;;;;27.86;39.01;101525.01;117290;1186;21852;-63
2021/10/03 10:46:59;;;;;;;;;;;;;;;27.80;39.13;101521.27;117147;1183;21851;-61
2021/10/03 10:49:32;;;;;;;5.10;1.80;;;;;;;27.80;39.16;101519.16;117160;1185;23545;-60
2021/10/03 10:52:22;;;;;;;3.30;1.90;;;;;;;27.81;39.01;101516.34;117282;1182;23445;-62
2021/10/03 10:54:59;;;;;;;5.30;1.50;;;;;;;27.79;38.84;101517.95;117290;1186;23545;-63
2021/10/03 10:57:32;;;;;;;3.40;1.80;;;;;;;27.79;38.91;101520.47;117329;1185;23547;-62
2021/10/03 11:00:24;;;;;;;3.00;1.60;;;;;;;27.80;38.80;101515.00;117348;1185;21857;-62
2021/10/03 11:03:00;;;;;;;3.90;1.90;;;;;;;27.80;38.85;101512.47;117170;1186;23573;-65
2021/10/03 11:05:37;;;;;;;3.60;2.10;;;;;;;27.79;38.80;101515.21;117337;1183;21855;-63
2021/10/03 11:08:10;;;;;;;7.60;2.00;;;;;;;27.78;38.77;101512.40;117280;1186;24162;-62
2021/10/03 11:10:59;;;;;;;4.10;2.00;;;;;;;27.82;38.53;101512.66;117303;1185;21844;-64
2021/10/03 11:13:41;;;;;;;3.10;2.10;;;;;;;27.80;38.31;101510.43;117358;1185;21918;-62
2021/10/03 11:16:23;;;;;;;4.30;2.00;;;;;;;27.79;38.20;101508.73;117196;1188;23569;-61
2021/10/03 11:19:02;;;;;;;5.50;1.80;;;;;;;27.79;38.15;101507.27;117256;1186;23547;-62
2021/10/03 11:21:33;;;;;;;3.70;1.70;;;;;;;27.83;38.21;101508.60;117325;1185;22325;-63
2021/10/03 11:24:03;;;;;;;3.80;2.00;;;;;;;27.86;38.26;101507.36;117327;1186;23806;-63
2021/10/03 11:26:53;;;;;;;3.30;1.90;;;;;;;27.88;38.30;101503.61;117305;1186;21869;-64
2021/10/03 11:29:26;;;;;;;4.20;2.10;;;;;;;27.90;38.15;101500.77;117370;1185;22909;-62